createdAt,value
2023-05-10T00:02:04.572Z,0.20
2023-05-10T00:04:31.560Z,0.20
2023-05-10T00:06:58.543Z,0.30
2023-05-10T00:09:25.663Z,0.20
2023-05-10T00:11:52.661Z,0.20
2023-05-10T00:14:20.057Z,0.30
2023-05-10T00:16:47.222Z,0.30
2023-05-10T00:19:14.312Z,0.30
2023-05-10T00:21:41.635Z,0.32
2023-05-10T00:24:08.638Z,0.35
2023-05-10T00:26:35.749Z,0.25
2023-05-10T00:29:03.013Z,0.20
2023-05-10T00:31:30.096Z,0.40
2023-05-10T00:33:58.240Z,0.30
2023-05-10T00:36:25.360Z,0.30
2023-05-10T00:38:52.482Z,0.20
2023-05-10T00:41:19.716Z,0.40
2023-05-10T00:43:47.580Z,0.60
2023-05-10T00:46:16.292Z,0.38
2023-05-10T00:48:44.696Z,0.30
2023-05-10T00:51:11.867Z,0.28
2023-05-10T00:53:38.990Z,0.35
2023-05-10T00:56:06.432Z,0.60
2023-05-10T00:58:34.063Z,0.38
2023-05-10T01:01:02.174Z,0.30
2023-05-10T01:03:29.901Z,0.47
2023-05-10T01:05:57.080Z,0.85
2023-05-10T01:08:26.645Z,0.50
2023-05-10T01:10:53.859Z,0.35
2023-05-10T01:13:43.499Z,0.45
2023-05-10T01:16:10.541Z,0.50
2023-05-10T01:18:41.944Z,0.47
2023-05-10T01:21:33.122Z,0.30
2023-05-10T01:24:22.856Z,0.30
2023-05-10T01:27:11.047Z,0.32
2023-05-10T01:30:13.558Z,0.50
2023-05-10T01:32:45.235Z,0.30
2023-05-10T01:35:23.100Z,0.30
2023-05-10T01:38:05.524Z,0.30
2023-05-10T01:41:03.324Z,0.32
2023-05-10T01:43:37.980Z,0.57
2023-05-10T01:46:11.842Z,0.20
2023-05-10T01:48:48.037Z,0.50
2023-05-10T01:51:22.777Z,0.40
2023-05-10T01:53:51.109Z,0.45
2023-05-10T01:56:24.134Z,0.47
2023-05-10T01:58:52.796Z,0.40
2023-05-10T02:01:22.473Z,0.40
2023-05-10T02:03:52.724Z,0.30
2023-05-10T02:06:22.946Z,0.50
2023-05-10T02:08:52.431Z,0.57
2023-05-10T02:11:22.374Z,0.43
2023-05-10T02:13:51.349Z,0.50
2023-05-10T02:16:22.758Z,0.40
2023-05-10T02:18:51.171Z,0.50
2023-05-10T02:21:21.268Z,1.73
2023-05-10T02:23:51.196Z,0.63
2023-05-10T02:26:20.158Z,0.50
2023-05-10T02:28:48.256Z,0.88
2023-05-10T02:31:15.875Z,0.82
2023-05-10T02:33:44.798Z,0.80
2023-05-10T02:36:13.472Z,0.90
2023-05-10T02:38:41.425Z,0.98
2023-05-10T02:41:10.629Z,1.13
2023-05-10T02:43:40.365Z,1.08
2023-05-10T02:46:07.592Z,0.98
2023-05-10T02:48:36.349Z,1.05
2023-05-10T02:51:08.035Z,1.10
2023-05-10T02:53:37.538Z,1.10
2023-05-10T02:56:15.043Z,1.10
2023-05-10T02:58:42.021Z,1.45
2023-05-10T03:01:09.684Z,1.35
2023-05-10T03:03:36.721Z,1.50
2023-05-10T03:06:04.392Z,1.67
2023-05-10T03:08:32.065Z,1.88
2023-05-10T03:11:29.896Z,2.00
2023-05-10T03:14:23.346Z,2.00
2023-05-10T03:17:01.304Z,1.58
2023-05-10T03:19:33.233Z,2.00
2023-05-10T03:22:04.693Z,2.27
2023-05-10T03:24:36.357Z,2.38
2023-05-10T03:27:05.360Z,2.83
2023-05-10T03:29:33.086Z,2.65
2023-05-10T03:32:01.100Z,2.88
2023-05-10T03:34:32.311Z,3.60
2023-05-10T03:36:59.444Z,3.63
2023-05-10T03:39:29.009Z,4.35
2023-05-10T03:41:59.220Z,3.45
2023-05-10T03:44:26.232Z,4.45
2023-05-10T03:46:53.341Z,4.45
2023-05-10T03:49:20.329Z,4.90
2023-05-10T03:51:47.656Z,4.88
2023-05-10T03:54:14.689Z,5.70
2023-05-10T03:56:41.935Z,5.10
2023-05-10T03:59:09.746Z,5.30
2023-05-10T04:01:36.817Z,5.80
2023-05-10T04:04:04.058Z,5.28
2023-05-10T04:06:32.866Z,6.18
2023-05-10T04:09:01.382Z,6.55
2023-05-10T04:11:28.858Z,6.82
2023-05-10T04:13:55.923Z,6.35
2023-05-10T04:16:23.109Z,6.60
2023-05-10T04:18:50.120Z,6.22
2023-05-10T04:21:17.189Z,5.68
2023-05-10T04:23:44.377Z,6.00
2023-05-10T04:26:11.473Z,5.88
2023-05-10T04:28:38.850Z,5.13
2023-05-10T04:31:07.544Z,4.53
2023-05-10T04:33:35.321Z,3.78
2023-05-10T04:36:02.730Z,4.18
2023-05-10T04:38:30.090Z,2.90
2023-05-10T04:41:08.044Z,2.72
2023-05-10T04:43:37.241Z,1.98
2023-05-10T04:46:05.381Z,2.17
2023-05-10T04:48:32.477Z,2.40
2023-05-10T04:50:59.504Z,2.58
2023-05-10T04:53:26.694Z,2.15
2023-05-10T04:55:53.695Z,2.15
2023-05-10T04:58:20.676Z,2.30
2023-05-10T05:00:47.688Z,2.03
2023-05-10T05:03:14.819Z,1.95
2023-05-10T05:05:41.880Z,2.00
2023-05-10T05:08:08.886Z,1.50
2023-05-10T05:10:35.873Z,1.60
2023-05-10T05:13:02.965Z,1.92
2023-05-10T05:15:31.463Z,2.13
2023-05-10T05:17:58.562Z,1.00
2023-05-10T05:20:25.639Z,1.45
2023-05-10T05:22:52.712Z,1.40
2023-05-10T05:25:19.691Z,1.40
2023-05-10T05:27:46.658Z,1.42
2023-05-10T05:30:13.752Z,1.23
2023-05-10T05:32:40.773Z,1.35
2023-05-10T05:35:08.219Z,1.90
2023-05-10T05:37:36.196Z,1.65
2023-05-10T05:40:03.540Z,1.60
2023-05-10T05:42:32.326Z,1.48
2023-05-10T05:44:59.460Z,1.83
2023-05-10T05:47:26.569Z,1.40
2023-05-10T05:49:53.546Z,1.83
2023-05-10T05:52:20.586Z,1.58
2023-05-10T05:54:47.639Z,1.85
2023-05-10T05:57:14.631Z,1.90
2023-05-10T05:59:44.713Z,2.13
2023-05-10T06:02:11.799Z,1.60
2023-05-10T06:04:39.256Z,2.10
2023-05-10T06:07:08.888Z,1.77
2023-05-10T06:09:35.898Z,2.15
2023-05-10T06:12:02.899Z,2.60
2023-05-10T06:14:29.873Z,2.50
2023-05-10T06:16:57.023Z,3.33
2023-05-10T06:19:24.176Z,2.63
2023-05-10T06:21:53.219Z,2.17
2023-05-10T06:24:20.888Z,2.28
2023-05-10T06:26:47.979Z,3.28
2023-05-10T06:29:16.178Z,2.35
2023-05-10T06:31:43.223Z,3.25
2023-05-10T06:34:10.657Z,2.90
2023-05-10T06:36:37.633Z,2.65
2023-05-10T06:39:04.767Z,2.90
2023-05-10T06:41:31.726Z,2.33
2023-05-10T06:43:58.751Z,3.15
2023-05-10T06:46:25.906Z,3.28
2023-05-10T06:48:53.132Z,3.28
2023-05-10T06:51:22.056Z,3.45
2023-05-10T06:53:49.085Z,3.67
2023-05-10T06:56:16.104Z,3.65
2023-05-10T06:58:43.140Z,3.20
2023-05-10T07:01:10.207Z,2.75
2023-05-10T07:03:37.260Z,2.78
2023-05-10T07:06:04.865Z,2.80
2023-05-10T07:08:32.587Z,2.40
2023-05-10T07:11:11.108Z,2.25
2023-05-10T07:13:40.004Z,2.30
2023-05-10T07:16:07.551Z,2.83
2023-05-10T07:18:34.953Z,3.00
2023-05-10T07:21:02.610Z,3.90
2023-05-10T07:23:30.456Z,3.25
2023-05-10T07:25:58.396Z,2.85
2023-05-10T07:28:25.438Z,2.90
2023-05-10T07:30:52.581Z,3.60
2023-05-10T07:33:19.658Z,3.15
2023-05-10T07:35:46.747Z,3.33
2023-05-10T07:38:13.735Z,3.60
2023-05-10T07:40:40.955Z,3.53
2023-05-10T07:43:07.958Z,3.70
2023-05-10T07:45:35.421Z,4.05
2023-05-10T07:48:02.618Z,3.85
2023-05-10T07:50:29.775Z,4.18
2023-05-10T07:52:56.800Z,5.00
2023-05-10T07:55:23.868Z,4.15
2023-05-10T07:57:50.941Z,4.50
2023-05-10T08:00:20.258Z,4.60
2023-05-10T08:02:48.283Z,4.50
2023-05-10T08:05:15.717Z,6.70
2023-05-10T08:07:43.396Z,7.70
2023-05-10T08:10:12.083Z,8.50
2023-05-10T08:12:39.677Z,9.25
2023-05-10T08:15:07.959Z,9.65
2023-05-10T08:17:35.410Z,10.25
2023-05-10T08:20:02.494Z,11.32
2023-05-10T08:22:29.523Z,12.88
2023-05-10T08:24:56.511Z,12.75
2023-05-10T08:27:23.618Z,14.32
2023-05-10T08:29:50.808Z,14.43
2023-05-10T08:32:18.502Z,15.10
2023-05-10T08:34:45.493Z,16.00
2023-05-10T08:37:14.509Z,16.80
2023-05-10T08:39:41.914Z,15.98
2023-05-10T08:42:10.224Z,17.33
2023-05-10T08:44:37.797Z,15.30
2023-05-10T08:47:08.401Z,16.52
2023-05-10T08:49:36.081Z,15.25
2023-05-10T08:52:05.217Z,15.55
2023-05-10T08:54:33.925Z,13.07
2023-05-10T08:57:01.556Z,13.07
2023-05-10T08:59:29.288Z,12.00
2023-05-10T09:01:59.372Z,13.35
2023-05-10T09:04:26.963Z,14.18
2023-05-10T09:06:55.609Z,13.93
2023-05-10T09:09:22.701Z,13.70
2023-05-10T09:11:49.983Z,14.35
2023-05-10T09:14:18.249Z,14.85
2023-05-10T09:16:45.717Z,14.10
2023-05-10T09:19:12.827Z,14.75
2023-05-10T09:21:39.949Z,15.00
2023-05-10T09:24:08.666Z,13.65
2023-05-10T09:26:36.950Z,13.52
2023-05-10T09:29:04.512Z,12.50
2023-05-10T09:31:57.221Z,13.82
2023-05-10T09:34:32.750Z,12.70
2023-05-10T09:37:02.386Z,12.07
2023-05-10T09:39:37.230Z,12.18
2023-05-10T09:42:06.756Z,9.57
2023-05-10T09:44:34.681Z,10.90
2023-05-10T09:47:03.081Z,12.13
2023-05-10T09:49:30.479Z,11.25
2023-05-10T09:52:02.622Z,11.43
2023-05-10T09:54:29.613Z,12.02
2023-05-10T09:56:56.962Z,11.60
2023-05-10T09:59:27.761Z,9.40
2023-05-10T10:02:00.301Z,9.45
2023-05-10T10:07:05.842Z,8.15
2023-05-10T10:09:34.346Z,8.32
2023-05-10T10:12:05.589Z,9.20
2023-05-10T10:14:32.638Z,9.52
2023-05-10T10:19:34.011Z,7.47
2023-05-10T10:22:01.290Z,6.75
2023-05-10T10:24:28.293Z,6.43
2023-05-10T10:27:00.644Z,6.80
2023-05-10T10:29:46.925Z,5.85
2023-05-10T10:32:36.778Z,5.15
2023-05-10T10:35:05.004Z,5.97
2023-05-10T10:37:46.176Z,9.32
2023-05-10T10:40:34.653Z,5.88
2023-05-10T10:43:25.305Z,4.80
2023-05-10T10:46:16.272Z,4.40
2023-05-10T10:48:52.464Z,4.80
2023-05-10T10:51:19.473Z,4.30
2023-05-10T10:53:48.974Z,4.60
2023-05-10T10:56:16.455Z,3.20
2023-05-10T10:58:52.259Z,3.03
2023-05-10T11:01:19.942Z,2.47
2023-05-10T11:04:02.071Z,2.10
2023-05-10T11:06:33.428Z,1.98
2023-05-10T11:09:11.031Z,2.20
2023-05-10T11:11:52.022Z,2.60
2023-05-10T11:14:22.489Z,3.15
2023-05-10T11:16:49.746Z,2.90
2023-05-10T11:19:18.084Z,2.22
2023-05-10T11:22:12.006Z,4.18
2023-05-10T11:24:39.032Z,3.08
2023-05-10T11:27:06.661Z,2.80
2023-05-10T11:29:33.662Z,2.15
2023-05-10T11:32:01.002Z,2.00
2023-05-10T11:34:35.504Z,1.75
2023-05-10T11:37:02.511Z,1.75
2023-05-10T11:39:30.992Z,1.73
2023-05-10T11:41:59.200Z,1.67
2023-05-10T11:44:32.953Z,1.70
2023-05-10T11:47:03.292Z,1.90
2023-05-10T11:49:30.874Z,1.95
2023-05-10T11:52:08.625Z,2.25
2023-05-10T11:54:38.490Z,2.65
2023-05-10T11:57:05.734Z,2.75
2023-05-10T11:59:32.897Z,1.92
2023-05-10T12:02:00.459Z,1.80
2023-05-10T12:04:30.213Z,2.42
2023-05-10T12:06:57.442Z,1.73
2023-05-10T12:11:57.854Z,1.60
2023-05-10T12:14:25.373Z,1.55
2023-05-10T12:16:52.664Z,2.13
2023-05-10T12:19:22.044Z,1.70
2023-05-10T12:21:49.551Z,1.30
2023-05-10T12:24:20.097Z,1.52
2023-05-10T12:26:47.295Z,1.80
2023-05-10T12:29:16.519Z,1.52
2023-05-10T12:31:57.307Z,1.70
2023-05-10T12:34:47.459Z,1.60
2023-05-10T12:37:14.868Z,1.83
2023-05-10T12:39:43.646Z,2.33
2023-05-10T12:42:11.351Z,2.50
2023-05-10T12:44:39.293Z,1.67
2023-05-10T12:47:06.855Z,1.70
2023-05-10T12:49:34.795Z,1.90
2023-05-10T12:52:02.085Z,1.80
2023-05-10T12:54:29.136Z,1.83
2023-05-10T12:56:56.181Z,1.95
2023-05-10T12:59:23.788Z,2.08
2023-05-10T13:01:51.028Z,2.22
2023-05-10T13:04:18.174Z,1.67
2023-05-10T13:06:45.347Z,2.20
2023-05-10T13:09:12.368Z,2.28
2023-05-10T13:11:39.469Z,2.10
2023-05-10T13:14:06.541Z,1.80
2023-05-10T13:16:33.831Z,1.65
2023-05-10T13:19:01.207Z,2.08
2023-05-10T13:21:28.811Z,1.98
2023-05-10T13:23:56.426Z,2.00
2023-05-10T13:26:23.525Z,2.22
2023-05-10T13:28:52.397Z,2.40
2023-05-10T13:31:19.503Z,2.42
2023-05-10T13:33:46.565Z,2.97
2023-05-10T13:36:13.555Z,2.92
2023-05-10T13:38:40.558Z,3.20
2023-05-10T13:41:07.769Z,2.78
2023-05-10T13:43:34.855Z,2.67
2023-05-10T13:46:02.628Z,2.67
2023-05-10T13:48:29.638Z,3.05
2023-05-10T13:50:57.048Z,2.60
2023-05-10T13:53:24.097Z,2.70
2023-05-10T13:55:51.314Z,3.50
2023-05-10T13:58:18.312Z,2.80
2023-05-10T14:00:45.313Z,3.85
2023-05-10T14:03:12.718Z,3.22
2023-05-10T14:05:39.892Z,3.40
2023-05-10T14:08:06.897Z,2.72
2023-05-10T14:10:33.932Z,3.72
2023-05-10T14:13:01.150Z,4.28
2023-05-10T14:15:28.216Z,3.85
2023-05-10T14:17:55.243Z,5.47
2023-05-10T14:20:22.425Z,5.10
2023-05-10T14:22:49.407Z,4.68
2023-05-10T14:25:16.563Z,4.85
2023-05-10T14:27:43.926Z,5.07
2023-05-10T14:30:11.555Z,4.43
2023-05-10T14:32:38.814Z,5.75
2023-05-10T14:35:07.007Z,5.45
2023-05-10T14:37:34.249Z,5.55
2023-05-10T14:40:01.370Z,6.57
2023-05-10T14:42:29.344Z,5.88
2023-05-10T14:44:56.374Z,5.75
2023-05-10T14:47:23.417Z,7.57
2023-05-10T14:49:50.488Z,6.70
2023-05-10T14:52:18.229Z,5.90
2023-05-10T14:54:45.226Z,5.88
2023-05-10T14:57:12.301Z,6.30
2023-05-10T14:59:39.540Z,5.50
2023-05-10T15:02:09.090Z,5.35
2023-05-10T15:04:36.754Z,4.55
2023-05-10T15:07:04.348Z,4.95
2023-05-10T15:09:31.984Z,4.50
2023-05-10T15:11:59.096Z,4.63
2023-05-10T15:14:26.171Z,5.93
2023-05-10T15:16:53.298Z,4.78
2023-05-10T15:19:21.027Z,4.85
2023-05-10T15:21:48.282Z,4.60
2023-05-10T15:24:15.514Z,4.75
2023-05-10T15:26:42.627Z,3.92
2023-05-10T15:29:09.612Z,4.25
2023-05-10T15:31:36.908Z,4.88
2023-05-10T15:34:04.047Z,4.53
2023-05-10T15:36:32.730Z,4.13
2023-05-10T15:38:59.703Z,5.00
2023-05-10T15:41:26.692Z,4.22
2023-05-10T15:43:54.604Z,4.60
2023-05-10T15:46:21.730Z,5.60
2023-05-10T15:48:48.776Z,5.13
2023-05-10T15:51:15.907Z,4.05
2023-05-10T15:53:56.531Z,4.93
2023-05-10T15:56:30.028Z,5.38
2023-05-10T15:58:57.207Z,4.90
2023-05-10T16:01:24.325Z,5.85
2023-05-10T16:03:51.373Z,6.70
2023-05-10T16:06:18.357Z,6.13
2023-05-10T16:08:45.353Z,5.93
2023-05-10T16:11:12.419Z,7.65
2023-05-10T16:13:39.399Z,6.97
2023-05-10T16:16:08.793Z,6.68
2023-05-10T16:18:36.088Z,7.15
2023-05-10T16:21:03.465Z,7.13
2023-05-10T16:23:30.639Z,6.88
2023-05-10T16:25:57.673Z,5.60
2023-05-10T16:28:24.782Z,7.20
2023-05-10T16:30:51.906Z,5.60
2023-05-10T16:33:18.914Z,4.55
2023-05-10T16:35:46.296Z,4.10
2023-05-10T16:38:13.316Z,4.80
2023-05-10T16:40:40.324Z,4.55
2023-05-10T16:43:07.703Z,3.97
2023-05-10T16:45:34.866Z,3.30
2023-05-10T16:48:01.944Z,3.85
2023-05-10T16:50:29.241Z,3.28
2023-05-10T16:52:56.316Z,2.85
2023-05-10T16:55:26.208Z,2.75
2023-05-10T16:57:59.495Z,3.13
2023-05-10T17:00:27.270Z,2.95
2023-05-10T17:02:54.772Z,2.40
2023-05-10T17:05:22.542Z,2.60
2023-05-10T17:07:50.531Z,1.77
2023-05-10T17:10:17.728Z,1.65
2023-05-10T17:12:45.609Z,1.45
2023-05-10T17:15:12.967Z,1.38
2023-05-10T17:17:40.155Z,1.60
2023-05-10T17:20:08.294Z,1.88
2023-05-10T17:22:35.437Z,1.40
2023-05-10T17:25:02.668Z,1.35
2023-05-10T17:27:30.175Z,2.40
2023-05-10T17:29:57.842Z,2.22
2023-05-10T17:32:25.687Z,2.70
2023-05-10T17:34:52.744Z,2.45
2023-05-10T17:37:19.812Z,3.42
2023-05-10T17:39:46.859Z,3.65
2023-05-10T17:42:16.196Z,2.20
2023-05-10T17:44:43.850Z,2.20
2023-05-10T17:47:10.898Z,2.42
2023-05-10T17:49:37.969Z,2.42
2023-05-10T17:52:05.050Z,2.40
2023-05-10T17:54:32.088Z,2.83
2023-05-10T17:57:00.795Z,2.80
2023-05-10T17:59:27.814Z,2.72
2023-05-10T18:01:54.787Z,3.33
2023-05-10T18:04:21.847Z,3.45
2023-05-10T18:06:49.319Z,3.42
2023-05-10T18:09:17.805Z,3.08
2023-05-10T18:11:44.762Z,3.20
2023-05-10T18:14:12.196Z,2.97
2023-05-10T18:16:39.266Z,3.28
2023-05-10T18:19:06.462Z,2.80
2023-05-10T18:21:33.512Z,3.25
2023-05-10T18:24:00.520Z,3.85
2023-05-10T18:26:27.705Z,6.30
2023-05-10T18:28:54.746Z,3.47
2023-05-10T18:31:22.011Z,3.05
2023-05-10T18:33:49.112Z,2.60
2023-05-10T18:36:16.762Z,2.38
2023-05-10T18:38:44.139Z,3.05
2023-05-10T18:41:12.345Z,2.65
2023-05-10T18:43:39.329Z,2.92
2023-05-10T18:46:06.593Z,3.53
2023-05-10T18:48:33.604Z,3.10
2023-05-10T18:51:00.738Z,3.30
2023-05-10T18:53:27.888Z,3.10
2023-05-10T18:55:57.698Z,2.55
2023-05-10T18:58:27.438Z,3.30
2023-05-10T19:00:54.852Z,3.25
2023-05-10T19:03:22.485Z,2.50
2023-05-10T19:05:49.488Z,3.10
2023-05-10T19:08:17.095Z,3.40
2023-05-10T19:10:44.244Z,4.30
2023-05-10T19:13:11.477Z,3.78
2023-05-10T19:15:38.533Z,3.47
2023-05-10T19:18:07.997Z,4.15
2023-05-10T19:20:36.588Z,4.45
2023-05-10T19:25:35.989Z,5.40
2023-05-10T19:28:02.959Z,4.28
2023-05-10T19:30:31.826Z,3.95
2023-05-10T19:32:58.908Z,3.53
2023-05-10T19:35:26.036Z,3.53
2023-05-10T19:37:53.498Z,4.00
2023-05-10T19:40:20.560Z,4.03
2023-05-10T19:42:48.635Z,5.60
2023-05-10T19:45:16.408Z,4.10
2023-05-10T19:47:43.953Z,6.30
2023-05-10T19:50:12.319Z,5.50
2023-05-10T19:52:39.541Z,4.38
2023-05-10T19:55:07.145Z,6.07
2023-05-10T19:57:34.408Z,4.88
2023-05-10T20:00:01.539Z,4.95
2023-05-10T20:02:28.544Z,4.32
2023-05-10T20:04:55.609Z,4.10
2023-05-10T20:07:22.594Z,4.18
2023-05-10T20:09:49.584Z,4.30
2023-05-10T20:12:16.610Z,4.75
2023-05-10T20:14:43.628Z,4.18
2023-05-10T20:17:10.711Z,4.20
2023-05-10T20:19:37.719Z,4.38
2023-05-10T20:22:05.394Z,3.83
2023-05-10T20:24:32.419Z,4.80
2023-05-10T20:27:00.407Z,4.65
2023-05-10T20:29:27.416Z,4.03
2023-05-10T20:31:54.429Z,4.40
2023-05-10T20:34:21.833Z,3.95
2023-05-10T20:36:48.885Z,3.92
2023-05-10T20:39:16.013Z,4.13
2023-05-10T20:41:43.682Z,3.80
2023-05-10T20:44:10.768Z,4.07
2023-05-10T20:46:37.926Z,4.18
2023-05-10T20:49:05.554Z,4.80
2023-05-10T20:51:33.269Z,4.40
2023-05-10T20:54:02.468Z,4.88
2023-05-10T20:56:29.645Z,5.05
2023-05-10T20:58:56.758Z,4.10
2023-05-10T21:01:23.824Z,3.85
2023-05-10T21:03:50.838Z,5.20
2023-05-10T21:06:17.872Z,4.60
2023-05-10T21:08:44.852Z,5.07
2023-05-10T21:11:11.905Z,4.47
2023-05-10T21:13:38.955Z,4.45
2023-05-10T21:16:06.133Z,4.13
2023-05-10T21:18:33.179Z,4.55
2023-05-10T21:21:00.334Z,4.60
2023-05-10T21:23:27.438Z,3.70
2023-05-10T21:25:55.800Z,4.10
2023-05-10T21:28:23.179Z,4.40
2023-05-10T21:30:51.049Z,4.70
2023-05-10T21:33:18.014Z,4.47
2023-05-10T21:35:45.253Z,4.57
2023-05-10T21:38:12.452Z,5.00
2023-05-10T21:40:40.305Z,4.97
2023-05-10T21:43:08.175Z,4.30
2023-05-10T21:45:36.341Z,4.22
2023-05-10T21:48:03.648Z,4.50
2023-05-10T21:50:30.746Z,5.28
2023-05-10T21:52:57.801Z,4.50
2023-05-10T21:55:24.935Z,4.70
2023-05-10T21:57:52.017Z,4.40
2023-05-10T22:00:19.717Z,4.90
2023-05-10T22:02:47.355Z,4.60
2023-05-10T22:05:14.551Z,4.60
2023-05-10T22:07:41.623Z,5.72
2023-05-10T22:10:09.518Z,5.85
2023-05-10T22:12:36.590Z,4.70
2023-05-10T22:15:09.927Z,4.53
2023-05-10T22:17:40.560Z,4.97
2023-05-10T22:20:08.828Z,5.47
2023-05-10T22:22:36.644Z,4.97
2023-05-10T22:25:05.781Z,5.68
2023-05-10T22:27:32.852Z,5.47
2023-05-10T22:29:59.824Z,5.70
2023-05-10T22:32:26.908Z,5.75
2023-05-10T22:34:53.898Z,5.25
2023-05-10T22:37:20.900Z,6.22
2023-05-10T22:39:48.666Z,5.97
2023-05-10T22:42:16.163Z,7.00
2023-05-10T22:44:43.595Z,5.95
2023-05-10T22:47:10.659Z,5.28
2023-05-10T22:49:37.919Z,5.53
2023-05-10T22:52:04.933Z,5.32
2023-05-10T22:54:33.191Z,5.22
2023-05-10T22:57:01.895Z,5.38
2023-05-10T22:59:28.886Z,5.13
2023-05-10T23:01:55.979Z,5.10
2023-05-10T23:04:23.236Z,4.97
2023-05-10T23:06:50.264Z,4.50
2023-05-10T23:09:17.335Z,5.57
2023-05-10T23:11:44.312Z,4.90
2023-05-10T23:14:11.770Z,5.25
2023-05-10T23:16:39.002Z,4.60
2023-05-10T23:19:07.112Z,5.38
2023-05-10T23:21:34.417Z,5.40
2023-05-10T23:24:01.484Z,5.57
2023-05-10T23:26:28.484Z,6.85
2023-05-10T23:28:55.505Z,6.75
2023-05-10T23:31:22.540Z,6.60
2023-05-10T23:33:49.571Z,8.55
2023-05-10T23:36:16.719Z,10.80
2023-05-10T23:38:43.701Z,9.70
2023-05-10T23:41:10.859Z,10.05
2023-05-10T23:43:37.830Z,8.55
2023-05-10T23:46:06.388Z,8.77
2023-05-10T23:48:33.448Z,9.98
2023-05-10T23:51:00.537Z,9.77
2023-05-10T23:53:28.301Z,10.25
2023-05-10T23:55:55.361Z,10.18
2023-05-10T23:58:22.353Z,11.13
